sensor_id;sensor_type;location;lat;lon;timestamp;P1;durP1;ratioP1;P2;durP2;ratioP2
67564;SDS011;54393;53.556;49.216;2023-07-29T00:02:13;5.87;;;5.30;;
67564;SDS011;54393;53.556;49.216;2023-07-29T00:04:40;5.22;;;4.72;;
67564;SDS011;54393;53.556;49.216;2023-07-29T00:07:06;5.43;;;4.82;;
67564;SDS011;54393;53.556;49.216;2023-07-29T00:09:33;5.80;;;5.25;;
67564;SDS011;54393;53.556;49.216;2023-07-29T00:11:59;6.20;;;5.15;;
67564;SDS011;54393;53.556;49.216;2023-07-29T00:14:26;5.80;;;5.20;;
67564;SDS011;54393;53.556;49.216;2023-07-29T00:16:52;5.78;;;5.22;;
67564;SDS011;54393;53.556;49.216;2023-07-29T00:19:18;6.65;;;5.60;;
67564;SDS011;54393;53.556;49.216;2023-07-29T00:21:48;6.70;;;5.25;;
67564;SDS011;54393;53.556;49.216;2023-07-29T00:24:15;5.68;;;5.18;;
67564;SDS011;54393;53.556;49.216;2023-07-29T00:26:41;6.40;;;5.22;;
67564;SDS011;54393;53.556;49.216;2023-07-29T00:29:08;6.55;;;4.82;;
67564;SDS011;54393;53.556;49.216;2023-07-29T00:31:34;5.68;;;5.00;;
67564;SDS011;54393;53.556;49.216;2023-07-29T00:34:00;6.00;;;5.28;;
67564;SDS011;54393;53.556;49.216;2023-07-29T00:36:27;6.35;;;5.25;;
67564;SDS011;54393;53.556;49.216;2023-07-29T00:38:53;5.60;;;4.95;;
67564;SDS011;54393;53.556;49.216;2023-07-29T00:41:22;5.53;;;5.03;;
67564;SDS011;54393;53.556;49.216;2023-07-29T00:43:49;5.87;;;5.28;;
67564;SDS011;54393;53.556;49.216;2023-07-29T00:46:15;8.20;;;5.30;;
67564;SDS011;54393;53.556;49.216;2023-07-29T00:48:42;5.50;;;5.00;;
67564;SDS011;54393;53.556;49.216;2023-07-29T00:51:09;7.35;;;4.97;;
67564;SDS011;54393;53.556;49.216;2023-07-29T00:53:35;5.28;;;4.87;;
67564;SDS011;54393;53.556;49.216;2023-07-29T00:56:02;5.53;;;4.75;;
67564;SDS011;54393;53.556;49.216;2023-07-29T00:58:28;6.37;;;4.82;;
67564;SDS011;54393;53.556;49.216;2023-07-29T01:00:55;6.00;;;4.68;;
67564;SDS011;54393;53.556;49.216;2023-07-29T01:03:22;5.30;;;4.80;;
67564;SDS011;54393;53.556;49.216;2023-07-29T01:08:20;5.70;;;5.20;;
67564;SDS011;54393;53.556;49.216;2023-07-29T01:11:01;6.72;;;4.97;;
67564;SDS011;54393;53.556;49.216;2023-07-29T01:13:37;5.53;;;4.90;;
67564;SDS011;54393;53.556;49.216;2023-07-29T01:19:05;5.45;;;4.97;;
67564;SDS011;54393;53.556;49.216;2023-07-29T01:21:33;5.75;;;5.10;;
67564;SDS011;54393;53.556;49.216;2023-07-29T01:24:01;6.30;;;5.40;;
67564;SDS011;54393;53.556;49.216;2023-07-29T01:26:28;5.55;;;5.00;;
67564;SDS011;54393;53.556;49.216;2023-07-29T01:28:55;5.87;;;5.30;;
67564;SDS011;54393;53.556;49.216;2023-07-29T01:33:57;5.65;;;5.15;;
67564;SDS011;54393;53.556;49.216;2023-07-29T01:36:43;4.78;;;4.37;;
67564;SDS011;54393;53.556;49.216;2023-07-29T01:39:11;5.50;;;5.00;;
67564;SDS011;54393;53.556;49.216;2023-07-29T01:41:38;6.57;;;4.95;;
67564;SDS011;54393;53.556;49.216;2023-07-29T01:44:05;7.62;;;5.28;;
67564;SDS011;54393;53.556;49.216;2023-07-29T01:46:35;6.87;;;5.03;;
67564;SDS011;54393;53.556;49.216;2023-07-29T01:49:02;5.10;;;4.65;;
67564;SDS011;54393;53.556;49.216;2023-07-29T01:51:29;5.05;;;4.55;;
67564;SDS011;54393;53.556;49.216;2023-07-29T01:53:55;7.30;;;5.50;;
67564;SDS011;54393;53.556;49.216;2023-07-29T01:56:24;6.40;;;5.50;;
67564;SDS011;54393;53.556;49.216;2023-07-29T01:58:50;6.45;;;5.50;;
67564;SDS011;54393;53.556;49.216;2023-07-29T02:01:17;5.75;;;5.25;;
67564;SDS011;54393;53.556;49.216;2023-07-29T02:03:43;6.28;;;5.20;;
67564;SDS011;54393;53.556;49.216;2023-07-29T02:06:10;6.15;;;5.10;;
67564;SDS011;54393;53.556;49.216;2023-07-29T02:08:36;6.90;;;5.20;;
67564;SDS011;54393;53.556;49.216;2023-07-29T02:11:06;7.75;;;5.20;;
67564;SDS011;54393;53.556;49.216;2023-07-29T02:13:32;5.50;;;5.00;;
67564;SDS011;54393;53.556;49.216;2023-07-29T02:15:58;6.30;;;5.43;;
67564;SDS011;54393;53.556;49.216;2023-07-29T02:18:25;6.18;;;5.57;;
67564;SDS011;54393;53.556;49.216;2023-07-29T02:20:51;6.32;;;5.72;;
67564;SDS011;54393;53.556;49.216;2023-07-29T02:23:18;6.18;;;5.28;;
67564;SDS011;54393;53.556;49.216;2023-07-29T02:25:44;8.05;;;5.47;;
67564;SDS011;54393;53.556;49.216;2023-07-29T02:28:11;6.37;;;5.62;;
67564;SDS011;54393;53.556;49.216;2023-07-29T02:30:41;5.70;;;5.20;;
67564;SDS011;54393;53.556;49.216;2023-07-29T02:33:10;8.20;;;5.72;;
67564;SDS011;54393;53.556;49.216;2023-07-29T02:35:36;6.55;;;5.57;;
67564;SDS011;54393;53.556;49.216;2023-07-29T02:38:03;6.37;;;5.68;;
67564;SDS011;54393;53.556;49.216;2023-07-29T02:40:29;6.40;;;5.75;;
67564;SDS011;54393;53.556;49.216;2023-07-29T02:42:55;7.12;;;5.45;;
67564;SDS011;54393;53.556;49.216;2023-07-29T02:45:22;7.87;;;5.90;;
67564;SDS011;54393;53.556;49.216;2023-07-29T02:47:48;10.98;;;6.00;;
67564;SDS011;54393;53.556;49.216;2023-07-29T02:50:15;6.05;;;5.43;;
67564;SDS011;54393;53.556;49.216;2023-07-29T02:52:41;7.12;;;5.75;;
67564;SDS011;54393;53.556;49.216;2023-07-29T02:55:08;9.65;;;6.07;;
67564;SDS011;54393;53.556;49.216;2023-07-29T02:57:34;6.50;;;5.78;;
67564;SDS011;54393;53.556;49.216;2023-07-29T03:00:01;7.22;;;6.03;;
67564;SDS011;54393;53.556;49.216;2023-07-29T03:02:28;8.38;;;6.05;;
67564;SDS011;54393;53.556;49.216;2023-07-29T03:04:54;7.95;;;5.93;;
67564;SDS011;54393;53.556;49.216;2023-07-29T03:07:21;9.77;;;6.25;;
67564;SDS011;54393;53.556;49.216;2023-07-29T03:09:47;9.05;;;6.35;;
67564;SDS011;54393;53.556;49.216;2023-07-29T03:12:13;8.90;;;5.68;;
67564;SDS011;54393;53.556;49.216;2023-07-29T03:14:40;7.05;;;6.18;;
67564;SDS011;54393;53.556;49.216;2023-07-29T03:17:07;7.70;;;5.72;;
67564;SDS011;54393;53.556;49.216;2023-07-29T03:19:33;7.85;;;5.43;;
67564;SDS011;54393;53.556;49.216;2023-07-29T03:22:00;8.88;;;6.05;;
67564;SDS011;54393;53.556;49.216;2023-07-29T03:24:26;7.80;;;5.95;;
67564;SDS011;54393;53.556;49.216;2023-07-29T03:26:54;7.20;;;6.47;;
67564;SDS011;54393;53.556;49.216;2023-07-29T03:29:20;6.80;;;6.18;;
67564;SDS011;54393;53.556;49.216;2023-07-29T03:31:46;9.63;;;6.28;;
67564;SDS011;54393;53.556;49.216;2023-07-29T03:34:13;6.18;;;5.12;;
67564;SDS011;54393;53.556;49.216;2023-07-29T03:36:39;8.25;;;5.70;;
67564;SDS011;54393;53.556;49.216;2023-07-29T03:39:06;8.00;;;5.90;;
67564;SDS011;54393;53.556;49.216;2023-07-29T03:41:33;7.57;;;6.00;;
67564;SDS011;54393;53.556;49.216;2023-07-29T03:43:59;8.38;;;5.85;;
67564;SDS011;54393;53.556;49.216;2023-07-29T03:46:26;6.57;;;5.85;;
67564;SDS011;54393;53.556;49.216;2023-07-29T03:48:52;7.90;;;5.90;;
67564;SDS011;54393;53.556;49.216;2023-07-29T03:51:18;9.05;;;6.28;;
67564;SDS011;54393;53.556;49.216;2023-07-29T03:53:46;8.55;;;6.00;;
67564;SDS011;54393;53.556;49.216;2023-07-29T03:56:12;7.00;;;6.03;;
67564;SDS011;54393;53.556;49.216;2023-07-29T03:58:39;7.10;;;6.03;;
67564;SDS011;54393;53.556;49.216;2023-07-29T04:01:05;6.53;;;5.93;;
67564;SDS011;54393;53.556;49.216;2023-07-29T04:03:33;7.32;;;6.00;;
67564;SDS011;54393;53.556;49.216;2023-07-29T04:05:59;6.22;;;5.68;;
67564;SDS011;54393;53.556;49.216;2023-07-29T04:08:26;5.85;;;5.25;;
67564;SDS011;54393;53.556;49.216;2023-07-29T04:10:53;6.35;;;5.75;;
67564;SDS011;54393;53.556;49.216;2023-07-29T04:13:19;8.07;;;5.93;;
67564;SDS011;54393;53.556;49.216;2023-07-29T04:15:46;6.07;;;5.47;;
67564;SDS011;54393;53.556;49.216;2023-07-29T04:18:12;8.60;;;6.20;;
67564;SDS011;54393;53.556;49.216;2023-07-29T04:20:39;7.30;;;5.93;;
67564;SDS011;54393;53.556;49.216;2023-07-29T04:23:05;6.12;;;5.60;;
67564;SDS011;54393;53.556;49.216;2023-07-29T04:25:32;6.50;;;5.90;;
67564;SDS011;54393;53.556;49.216;2023-07-29T04:27:58;6.95;;;6.28;;
67564;SDS011;54393;53.556;49.216;2023-07-29T04:30:25;7.00;;;6.30;;
67564;SDS011;54393;53.556;49.216;2023-07-29T04:32:51;7.35;;;6.12;;
67564;SDS011;54393;53.556;49.216;2023-07-29T04:35:18;7.22;;;6.32;;
67564;SDS011;54393;53.556;49.216;2023-07-29T04:37:44;7.30;;;6.22;;
67564;SDS011;54393;53.556;49.216;2023-07-29T04:40:13;5.80;;;5.25;;
67564;SDS011;54393;53.556;49.216;2023-07-29T04:42:40;8.68;;;5.60;;
67564;SDS011;54393;53.556;49.216;2023-07-29T04:45:06;6.70;;;5.75;;
67564;SDS011;54393;53.556;49.216;2023-07-29T04:47:33;8.00;;;6.05;;
67564;SDS011;54393;53.556;49.216;2023-07-29T04:49:59;7.50;;;5.93;;
67564;SDS011;54393;53.556;49.216;2023-07-29T04:52:26;6.05;;;5.55;;
67564;SDS011;54393;53.556;49.216;2023-07-29T04:54:52;7.00;;;6.30;;
67564;SDS011;54393;53.556;49.216;2023-07-29T04:57:19;6.50;;;5.90;;
67564;SDS011;54393;53.556;49.216;2023-07-29T04:59:45;7.03;;;6.25;;
67564;SDS011;54393;53.556;49.216;2023-07-29T05:02:12;6.75;;;6.12;;
67564;SDS011;54393;53.556;49.216;2023-07-29T05:04:38;7.90;;;5.95;;
67564;SDS011;54393;53.556;49.216;2023-07-29T05:07:04;9.27;;;5.75;;
67564;SDS011;54393;53.556;49.216;2023-07-29T05:09:31;6.53;;;5.93;;
67564;SDS011;54393;53.556;49.216;2023-07-29T05:11:58;8.73;;;6.25;;
67564;SDS011;54393;53.556;49.216;2023-07-29T05:14:24;6.68;;;5.80;;
67564;SDS011;54393;53.556;49.216;2023-07-29T05:16:50;7.85;;;6.43;;
67564;SDS011;54393;53.556;49.216;2023-07-29T05:19:17;6.75;;;6.05;;
67564;SDS011;54393;53.556;49.216;2023-07-29T05:21:43;7.62;;;5.72;;
67564;SDS011;54393;53.556;49.216;2023-07-29T05:24:10;6.03;;;5.53;;
67564;SDS011;54393;53.556;49.216;2023-07-29T05:26:36;10.70;;;5.90;;
67564;SDS011;54393;53.556;49.216;2023-07-29T05:29:03;6.53;;;5.87;;
67564;SDS011;54393;53.556;49.216;2023-07-29T05:31:29;6.78;;;5.97;;
67564;SDS011;54393;53.556;49.216;2023-07-29T05:33:56;6.10;;;5.50;;
67564;SDS011;54393;53.556;49.216;2023-07-29T05:36:22;7.25;;;5.35;;
67564;SDS011;54393;53.556;49.216;2023-07-29T05:38:49;6.40;;;5.72;;
67564;SDS011;54393;53.556;49.216;2023-07-29T05:41:16;6.03;;;5.50;;
67564;SDS011;54393;53.556;49.216;2023-07-29T05:43:43;6.70;;;6.10;;
67564;SDS011;54393;53.556;49.216;2023-07-29T05:46:10;6.50;;;5.90;;
67564;SDS011;54393;53.556;49.216;2023-07-29T05:48:36;7.82;;;5.90;;
67564;SDS011;54393;53.556;49.216;2023-07-29T05:51:03;6.20;;;5.70;;
67564;SDS011;54393;53.556;49.216;2023-07-29T05:53:33;5.85;;;5.35;;
67564;SDS011;54393;53.556;49.216;2023-07-29T05:55:59;6.32;;;5.70;;
67564;SDS011;54393;53.556;49.216;2023-07-29T05:58:25;6.82;;;5.68;;
67564;SDS011;54393;53.556;49.216;2023-07-29T06:00:52;8.30;;;6.18;;
67564;SDS011;54393;53.556;49.216;2023-07-29T06:03:18;5.93;;;5.43;;
67564;SDS011;54393;53.556;49.216;2023-07-29T06:05:45;7.97;;;5.53;;
67564;SDS011;54393;53.556;49.216;2023-07-29T06:08:11;5.97;;;5.47;;
67564;SDS011;54393;53.556;49.216;2023-07-29T06:10:38;6.30;;;5.70;;
67564;SDS011;54393;53.556;49.216;2023-07-29T06:13:04;6.32;;;5.65;;
67564;SDS011;54393;53.556;49.216;2023-07-29T06:15:31;6.22;;;5.00;;
67564;SDS011;54393;53.556;49.216;2023-07-29T06:17:57;7.12;;;5.43;;
67564;SDS011;54393;53.556;49.216;2023-07-29T06:20:24;7.53;;;5.53;;
67564;SDS011;54393;53.556;49.216;2023-07-29T06:22:50;6.60;;;5.50;;
67564;SDS011;54393;53.556;49.216;2023-07-29T06:25:17;7.18;;;5.75;;
67564;SDS011;54393;53.556;49.216;2023-07-29T06:27:43;5.20;;;4.80;;
67564;SDS011;54393;53.556;49.216;2023-07-29T06:30:10;6.05;;;5.55;;
67564;SDS011;54393;53.556;49.216;2023-07-29T06:32:36;5.85;;;5.00;;
67564;SDS011;54393;53.556;49.216;2023-07-29T06:35:03;7.97;;;5.10;;
67564;SDS011;54393;53.556;49.216;2023-07-29T06:37:30;6.43;;;5.60;;
67564;SDS011;54393;53.556;49.216;2023-07-29T06:39:58;7.40;;;5.35;;
67564;SDS011;54393;53.556;49.216;2023-07-29T06:42:24;5.45;;;4.95;;
67564;SDS011;54393;53.556;49.216;2023-07-29T06:44:51;5.60;;;5.03;;
67564;SDS011;54393;53.556;49.216;2023-07-29T06:47:17;5.62;;;5.12;;
67564;SDS011;54393;53.556;49.216;2023-07-29T06:49:45;5.30;;;4.90;;
67564;SDS011;54393;53.556;49.216;2023-07-29T06:52:12;6.20;;;5.32;;
67564;SDS011;54393;53.556;49.216;2023-07-29T06:54:39;5.55;;;4.87;;
67564;SDS011;54393;53.556;49.216;2023-07-29T06:57:05;5.45;;;4.95;;
67564;SDS011;54393;53.556;49.216;2023-07-29T06:59:32;5.68;;;4.87;;
67564;SDS011;54393;53.556;49.216;2023-07-29T07:01:58;5.62;;;4.93;;
67564;SDS011;54393;53.556;49.216;2023-07-29T07:04:25;5.95;;;5.03;;
67564;SDS011;54393;53.556;49.216;2023-07-29T07:06:51;5.37;;;4.87;;
67564;SDS011;54393;53.556;49.216;2023-07-29T07:09:19;4.90;;;4.50;;
67564;SDS011;54393;53.556;49.216;2023-07-29T07:11:45;5.18;;;4.78;;
67564;SDS011;54393;53.556;49.216;2023-07-29T07:14:11;5.40;;;4.80;;
67564;SDS011;54393;53.556;49.216;2023-07-29T07:16:38;5.30;;;4.78;;
67564;SDS011;54393;53.556;49.216;2023-07-29T07:19:05;4.90;;;4.50;;
67564;SDS011;54393;53.556;49.216;2023-07-29T07:21:31;5.50;;;4.87;;
67564;SDS011;54393;53.556;49.216;2023-07-29T07:23:58;4.97;;;4.57;;
67564;SDS011;54393;53.556;49.216;2023-07-29T07:26:24;5.72;;;4.70;;
67564;SDS011;54393;53.556;49.216;2023-07-29T07:28:50;6.07;;;4.72;;
67564;SDS011;54393;53.556;49.216;2023-07-29T07:31:17;5.10;;;4.70;;
67564;SDS011;54393;53.556;49.216;2023-07-29T07:33:44;5.50;;;5.10;;
67564;SDS011;54393;53.556;49.216;2023-07-29T07:36:10;5.12;;;4.60;;
67564;SDS011;54393;53.556;49.216;2023-07-29T07:38:37;5.22;;;4.72;;
67564;SDS011;54393;53.556;49.216;2023-07-29T07:41:03;5.28;;;4.85;;
67564;SDS011;54393;53.556;49.216;2023-07-29T07:43:30;5.80;;;4.95;;
67564;SDS011;54393;53.556;49.216;2023-07-29T07:46:00;4.95;;;4.47;;
67564;SDS011;54393;53.556;49.216;2023-07-29T07:48:27;5.10;;;4.70;;
67564;SDS011;54393;53.556;49.216;2023-07-29T07:50:53;5.30;;;4.60;;
67564;SDS011;54393;53.556;49.216;2023-07-29T07:53:20;5.55;;;4.70;;
67564;SDS011;54393;53.556;49.216;2023-07-29T07:55:47;5.05;;;4.65;;
67564;SDS011;54393;53.556;49.216;2023-07-29T07:58:13;4.85;;;4.45;;
67564;SDS011;54393;53.556;49.216;2023-07-29T08:00:39;4.85;;;4.30;;
67564;SDS011;54393;53.556;49.216;2023-07-29T08:03:06;4.78;;;4.37;;
67564;SDS011;54393;53.556;49.216;2023-07-29T08:05:32;5.80;;;4.50;;
67564;SDS011;54393;53.556;49.216;2023-07-29T08:07:59;4.30;;;4.00;;
67564;SDS011;54393;53.556;49.216;2023-07-29T08:10:25;4.78;;;4.40;;
67564;SDS011;54393;53.556;49.216;2023-07-29T08:12:52;4.50;;;4.12;;
67564;SDS011;54393;53.556;49.216;2023-07-29T08:15:18;4.30;;;4.00;;
67564;SDS011;54393;53.556;49.216;2023-07-29T08:17:45;4.85;;;4.45;;
67564;SDS011;54393;53.556;49.216;2023-07-29T08:20:12;4.62;;;4.22;;
67564;SDS011;54393;53.556;49.216;2023-07-29T08:22:38;4.65;;;4.12;;
67564;SDS011;54393;53.556;49.216;2023-07-29T08:25:05;4.80;;;4.37;;
67564;SDS011;54393;53.556;49.216;2023-07-29T08:27:33;4.70;;;4.10;;
67564;SDS011;54393;53.556;49.216;2023-07-29T08:29:59;4.25;;;3.95;;
67564;SDS011;54393;53.556;49.216;2023-07-29T08:32:26;4.45;;;4.10;;
67564;SDS011;54393;53.556;49.216;2023-07-29T08:34:52;4.90;;;4.50;;
67564;SDS011;54393;53.556;49.216;2023-07-29T08:37:19;5.85;;;4.57;;
67564;SDS011;54393;53.556;49.216;2023-07-29T08:39:45;4.82;;;4.40;;
67564;SDS011;54393;53.556;49.216;2023-07-29T08:42:12;4.47;;;4.07;;
67564;SDS011;54393;53.556;49.216;2023-07-29T08:44:40;4.53;;;4.20;;
67564;SDS011;54393;53.556;49.216;2023-07-29T08:47:07;4.55;;;4.15;;
67564;SDS011;54393;53.556;49.216;2023-07-29T08:49:34;4.40;;;4.00;;
67564;SDS011;54393;53.556;49.216;2023-07-29T08:52:02;4.78;;;4.32;;
67564;SDS011;54393;53.556;49.216;2023-07-29T08:54:30;4.20;;;3.80;;
67564;SDS011;54393;53.556;49.216;2023-07-29T08:56:57;4.00;;;3.62;;
67564;SDS011;54393;53.556;49.216;2023-07-29T08:59:24;4.57;;;4.18;;
67564;SDS011;54393;53.556;49.216;2023-07-29T09:01:52;4.40;;;4.10;;
67564;SDS011;54393;53.556;49.216;2023-07-29T09:04:20;5.70;;;4.18;;
67564;SDS011;54393;53.556;49.216;2023-07-29T09:06:50;4.25;;;3.95;;
67564;SDS011;54393;53.556;49.216;2023-07-29T09:09:17;4.18;;;3.78;;
67564;SDS011;54393;53.556;49.216;2023-07-29T09:11:43;4.22;;;3.92;;
67564;SDS011;54393;53.556;49.216;2023-07-29T09:14:10;5.40;;;4.30;;
67564;SDS011;54393;53.556;49.216;2023-07-29T09:16:36;4.15;;;3.85;;
67564;SDS011;54393;53.556;49.216;2023-07-29T09:19:03;4.15;;;3.85;;
67564;SDS011;54393;53.556;49.216;2023-07-29T09:21:30;3.95;;;3.65;;
67564;SDS011;54393;53.556;49.216;2023-07-29T09:23:57;4.12;;;3.83;;
67564;SDS011;54393;53.556;49.216;2023-07-29T09:26:27;4.97;;;4.22;;
67564;SDS011;54393;53.556;49.216;2023-07-29T09:28:54;4.32;;;3.90;;
67564;SDS011;54393;53.556;49.216;2023-07-29T09:31:22;4.25;;;3.85;;
67564;SDS011;54393;53.556;49.216;2023-07-29T09:33:49;3.53;;;3.28;;
67564;SDS011;54393;53.556;49.216;2023-07-29T09:36:26;3.90;;;3.60;;
67564;SDS011;54393;53.556;49.216;2023-07-29T09:38:55;4.18;;;3.87;;
67564;SDS011;54393;53.556;49.216;2023-07-29T09:41:25;3.78;;;3.47;;
67564;SDS011;54393;53.556;49.216;2023-07-29T09:43:56;4.05;;;3.75;;
67564;SDS011;54393;53.556;49.216;2023-07-29T09:46:34;4.10;;;3.80;;
67564;SDS011;54393;53.556;49.216;2023-07-29T09:49:05;4.10;;;3.80;;
67564;SDS011;54393;53.556;49.216;2023-07-29T09:51:36;4.53;;;4.12;;
67564;SDS011;54393;53.556;49.216;2023-07-29T09:54:04;4.15;;;3.85;;
67564;SDS011;54393;53.556;49.216;2023-07-29T09:56:30;4.45;;;4.05;;
67564;SDS011;54393;53.556;49.216;2023-07-29T09:58:57;4.10;;;3.70;;
67564;SDS011;54393;53.556;49.216;2023-07-29T10:01:24;3.92;;;3.65;;
67564;SDS011;54393;53.556;49.216;2023-07-29T10:03:50;4.20;;;3.90;;
67564;SDS011;54393;53.556;49.216;2023-07-29T10:06:17;4.45;;;4.10;;
67564;SDS011;54393;53.556;49.216;2023-07-29T10:08:44;5.12;;;3.62;;
67564;SDS011;54393;53.556;49.216;2023-07-29T10:11:11;4.05;;;3.75;;
67564;SDS011;54393;53.556;49.216;2023-07-29T10:13:38;4.10;;;3.70;;
67564;SDS011;54393;53.556;49.216;2023-07-29T10:16:05;4.05;;;3.75;;
67564;SDS011;54393;53.556;49.216;2023-07-29T10:18:32;4.25;;;3.80;;
67564;SDS011;54393;53.556;49.216;2023-07-29T10:21:00;4.22;;;3.37;;
67564;SDS011;54393;53.556;49.216;2023-07-29T10:23:27;4.20;;;3.80;;
67564;SDS011;54393;53.556;49.216;2023-07-29T10:26:02;3.83;;;3.60;;
67564;SDS011;54393;53.556;49.216;2023-07-29T10:28:30;3.80;;;3.50;;
67564;SDS011;54393;53.556;49.216;2023-07-29T10:30:57;3.97;;;3.62;;
67564;SDS011;54393;53.556;49.216;2023-07-29T10:33:24;5.43;;;4.45;;
67564;SDS011;54393;53.556;49.216;2023-07-29T10:35:51;5.00;;;3.90;;
67564;SDS011;54393;53.556;49.216;2023-07-29T10:38:19;4.03;;;3.67;;
67564;SDS011;54393;53.556;49.216;2023-07-29T10:40:49;4.12;;;3.83;;
67564;SDS011;54393;53.556;49.216;2023-07-29T10:43:38;4.82;;;3.80;;
67564;SDS011;54393;53.556;49.216;2023-07-29T10:46:17;5.30;;;3.95;;
67564;SDS011;54393;53.556;49.216;2023-07-29T10:53:48;3.90;;;3.50;;
67564;SDS011;54393;53.556;49.216;2023-07-29T10:56:28;3.97;;;3.60;;
67564;SDS011;54393;53.556;49.216;2023-07-29T10:59:00;4.10;;;3.70;;
67564;SDS011;54393;53.556;49.216;2023-07-29T11:01:41;3.83;;;3.53;;
67564;SDS011;54393;53.556;49.216;2023-07-29T11:12:53;3.70;;;3.40;;
67564;SDS011;54393;53.556;49.216;2023-07-29T11:15:14;5.10;;;3.78;;
67564;SDS011;54393;53.556;49.216;2023-07-29T11:20:07;4.35;;;3.97;;
67564;SDS011;54393;53.556;49.216;2023-07-29T11:22:34;3.97;;;3.67;;
67564;SDS011;54393;53.556;49.216;2023-07-29T11:25:01;4.30;;;4.00;;
67564;SDS011;54393;53.556;49.216;2023-07-29T11:27:28;3.83;;;3.53;;
67564;SDS011;54393;53.556;49.216;2023-07-29T11:29:58;3.87;;;3.58;;
67564;SDS011;54393;53.556;49.216;2023-07-29T11:32:26;3.87;;;3.50;;
67564;SDS011;54393;53.556;49.216;2023-07-29T11:34:52;4.00;;;3.70;;
67564;SDS011;54393;53.556;49.216;2023-07-29T11:37:19;4.03;;;3.62;;
67564;SDS011;54393;53.556;49.216;2023-07-29T11:39:46;3.85;;;3.55;;
67564;SDS011;54393;53.556;49.216;2023-07-29T11:42:16;4.20;;;3.90;;
67564;SDS011;54393;53.556;49.216;2023-07-29T11:44:42;3.80;;;3.50;;
67564;SDS011;54393;53.556;49.216;2023-07-29T11:47:09;3.42;;;3.22;;
67564;SDS011;54393;53.556;49.216;2023-07-29T11:49:38;4.35;;;3.92;;
67564;SDS011;54393;53.556;49.216;2023-07-29T11:52:09;3.58;;;3.28;;
67564;SDS011;54393;53.556;49.216;2023-07-29T11:54:36;3.97;;;3.53;;
67564;SDS011;54393;53.556;49.216;2023-07-29T11:57:09;3.62;;;3.42;;
67564;SDS011;54393;53.556;49.216;2023-07-29T11:59:36;3.75;;;3.40;;
67564;SDS011;54393;53.556;49.216;2023-07-29T12:02:13;3.90;;;3.60;;
67564;SDS011;54393;53.556;49.216;2023-07-29T12:04:41;3.33;;;3.12;;
67564;SDS011;54393;53.556;49.216;2023-07-29T12:07:09;6.15;;;3.37;;
67564;SDS011;54393;53.556;49.216;2023-07-29T12:09:36;7.60;;;4.03;;
67564;SDS011;54393;53.556;49.216;2023-07-29T12:12:03;14.80;;;4.45;;
67564;SDS011;54393;53.556;49.216;2023-07-29T12:14:30;28.98;;;5.55;;
67564;SDS011;54393;53.556;49.216;2023-07-29T12:16:59;32.00;;;6.57;;
67564;SDS011;54393;53.556;49.216;2023-07-29T12:22:04;79.82;;;9.27;;
67564;SDS011;54393;53.556;49.216;2023-07-29T12:24:32;80.47;;;8.77;;
67564;SDS011;54393;53.556;49.216;2023-07-29T12:27:00;99.75;;;10.15;;
67564;SDS011;54393;53.556;49.216;2023-07-29T12:29:27;116.15;;;11.20;;
67564;SDS011;54393;53.556;49.216;2023-07-29T12:32:01;114.65;;;10.85;;
67564;SDS011;54393;53.556;49.216;2023-07-29T12:34:28;134.68;;;13.43;;
67564;SDS011;54393;53.556;49.216;2023-07-29T12:36:57;103.20;;;10.45;;
67564;SDS011;54393;53.556;49.216;2023-07-29T12:39:25;103.18;;;11.25;;
67564;SDS011;54393;53.556;49.216;2023-07-29T12:41:57;138.32;;;12.98;;
67564;SDS011;54393;53.556;49.216;2023-07-29T12:44:34;114.65;;;11.43;;
67564;SDS011;54393;53.556;49.216;2023-07-29T12:47:02;99.50;;;11.27;;
67564;SDS011;54393;53.556;49.216;2023-07-29T12:49:30;117.82;;;13.18;;
67564;SDS011;54393;53.556;49.216;2023-07-29T12:51:57;100.43;;;11.45;;
67564;SDS011;54393;53.556;49.216;2023-07-29T12:54:26;100.82;;;11.98;;
67564;SDS011;54393;53.556;49.216;2023-07-29T12:56:53;89.03;;;10.30;;
67564;SDS011;54393;53.556;49.216;2023-07-29T12:59:19;102.35;;;10.65;;
67564;SDS011;54393;53.556;49.216;2023-07-29T13:01:46;88.78;;;10.82;;
67564;SDS011;54393;53.556;49.216;2023-07-29T13:04:13;82.12;;;10.63;;
67564;SDS011;54393;53.556;49.216;2023-07-29T13:06:39;86.68;;;9.45;;
67564;SDS011;54393;53.556;49.216;2023-07-29T13:09:06;82.62;;;10.48;;
67564;SDS011;54393;53.556;49.216;2023-07-29T13:11:32;77.05;;;9.50;;
67564;SDS011;54393;53.556;49.216;2023-07-29T13:13:59;76.37;;;10.65;;
67564;SDS011;54393;53.556;49.216;2023-07-29T13:16:27;74.78;;;9.30;;
67564;SDS011;54393;53.556;49.216;2023-07-29T13:18:54;67.82;;;8.98;;
67564;SDS011;54393;53.556;49.216;2023-07-29T13:21:21;82.37;;;10.40;;
67564;SDS011;54393;53.556;49.216;2023-07-29T13:23:48;71.28;;;9.65;;
67564;SDS011;54393;53.556;49.216;2023-07-29T13:26:14;58.75;;;9.52;;
67564;SDS011;54393;53.556;49.216;2023-07-29T13:28:41;77.35;;;9.40;;
67564;SDS011;54393;53.556;49.216;2023-07-29T13:31:09;63.47;;;9.57;;
67564;SDS011;54393;53.556;49.216;2023-07-29T13:33:36;61.28;;;9.02;;
67564;SDS011;54393;53.556;49.216;2023-07-29T13:36:03;81.75;;;9.75;;
67564;SDS011;54393;53.556;49.216;2023-07-29T13:38:30;63.58;;;8.45;;
67564;SDS011;54393;53.556;49.216;2023-07-29T13:40:57;71.03;;;9.32;;
67564;SDS011;54393;53.556;49.216;2023-07-29T13:43:23;50.12;;;8.43;;
67564;SDS011;54393;53.556;49.216;2023-07-29T13:45:51;58.20;;;7.93;;
67564;SDS011;54393;53.556;49.216;2023-07-29T13:48:17;45.55;;;8.00;;
67564;SDS011;54393;53.556;49.216;2023-07-29T13:50:45;62.38;;;8.93;;
67564;SDS011;54393;53.556;49.216;2023-07-29T13:53:11;55.60;;;8.80;;
67564;SDS011;54393;53.556;49.216;2023-07-29T13:55:38;56.80;;;7.82;;
67564;SDS011;54393;53.556;49.216;2023-07-29T13:58:04;50.42;;;7.68;;
67564;SDS011;54393;53.556;49.216;2023-07-29T14:00:31;44.72;;;8.05;;
67564;SDS011;54393;53.556;49.216;2023-07-29T14:02:57;37.75;;;7.05;;
67564;SDS011;54393;53.556;49.216;2023-07-29T14:05:23;44.20;;;7.40;;
67564;SDS011;54393;53.556;49.216;2023-07-29T14:07:50;42.40;;;7.45;;
67564;SDS011;54393;53.556;49.216;2023-07-29T14:10:16;45.42;;;6.85;;
67564;SDS011;54393;53.556;49.216;2023-07-29T14:12:43;46.22;;;7.37;;
67564;SDS011;54393;53.556;49.216;2023-07-29T14:15:09;36.88;;;7.15;;
67564;SDS011;54393;53.556;49.216;2023-07-29T14:17:36;39.30;;;7.00;;
67564;SDS011;54393;53.556;49.216;2023-07-29T14:20:02;33.78;;;6.37;;
67564;SDS011;54393;53.556;49.216;2023-07-29T14:22:30;36.30;;;6.85;;
67564;SDS011;54393;53.556;49.216;2023-07-29T14:24:56;46.03;;;6.80;;
67564;SDS011;54393;53.556;49.216;2023-07-29T14:27:23;43.60;;;6.72;;
67564;SDS011;54393;53.556;49.216;2023-07-29T14:29:49;40.30;;;6.50;;
67564;SDS011;54393;53.556;49.216;2023-07-29T14:32:16;31.12;;;6.45;;
67564;SDS011;54393;53.556;49.216;2023-07-29T14:34:42;36.53;;;7.10;;
67564;SDS011;54393;53.556;49.216;2023-07-29T14:37:08;34.88;;;6.62;;
67564;SDS011;54393;53.556;49.216;2023-07-29T14:39:35;31.08;;;6.20;;
67564;SDS011;54393;53.556;49.216;2023-07-29T14:42:02;25.02;;;5.62;;
67564;SDS011;54393;53.556;49.216;2023-07-29T14:44:28;23.15;;;4.70;;
67564;SDS011;54393;53.556;49.216;2023-07-29T14:46:55;24.90;;;5.82;;
67564;SDS011;54393;53.556;49.216;2023-07-29T14:49:21;29.17;;;5.80;;
67564;SDS011;54393;53.556;49.216;2023-07-29T14:51:48;29.42;;;5.68;;
67564;SDS011;54393;53.556;49.216;2023-07-29T14:54:14;20.73;;;5.43;;
67564;SDS011;54393;53.556;49.216;2023-07-29T14:56:41;20.15;;;5.00;;
67564;SDS011;54393;53.556;49.216;2023-07-29T14:59:07;20.10;;;5.07;;